Terminal Aerodrome Forecast
Issued by NWS Melbourne, FL

Home | Current Version | Previous Version | Text Only | Print | Product List | Glossary On
Versions: 1 2 3 4 5 6 7 8 9 10 11 12
000
FTUS42 KMLB 042341
TAFDAB
TAF
KDAB 042341Z 0500/0524 06012KT P6SM FEW040 BKN200
     FM050300 06007KT P6SM FEW040 BKN200
     FM051400 07013G19KT P6SM VCSH SCT040 BKN250
     FM051800 07018G25KT P6SM VCSH SCT040 BKN250=

USA.gov is the U.S. government's official web portal to all federal, state and local government web resources and services.